Time;durP1;ratioP1;P1;durP2;ratioP2;P2;SDS_P1;SDS_P2;PMS_P1;PMS_P2;Temp;Humidity;BMP_temperature;BMP_pressure;BME280_temperature;BME280_humidity;BME280_pressure;Samples;Min_cycle;Max_cycle;Signal;HPM_P1;HPM_P2
2022/04/08 00:02:04;;;;;;;3.67;0.80;;;;;;;7.03;100.00;98015.31;5235183;28;20028;-78
2022/04/08 00:04:34;;;;;;;4.78;0.90;;;;;;;6.97;100.00;98019.13;5229141;28;20052;-78
2022/04/08 00:07:04;;;;;;;5.50;0.90;;;;;;;6.98;100.00;98019.97;5227438;28;20506;-78
2022/04/08 00:09:35;;;;;;;4.07;1.40;;;;;;;6.82;100.00;98019.22;5232378;28;20048;-79
2022/04/08 00:12:06;;;;;;;4.97;0.98;;;;;;;6.77;100.00;98021.28;5233269;28;20012;-79
2022/04/08 00:14:36;;;;;;;4.47;1.20;;;;;;;6.79;100.00;98032.41;5234222;28;20028;-79
2022/04/08 00:17:06;;;;;;;4.00;0.98;;;;;;;6.72;100.00;98031.94;5228505;28;20626;-78
2022/04/08 00:19:36;;;;;;;4.45;0.90;;;;;;;6.73;100.00;98033.59;5236084;28;20036;-78
2022/04/08 00:22:07;;;;;;;3.17;0.90;;;;;;;6.69;100.00;98039.06;5231176;28;20040;-77
2022/04/08 00:24:37;;;;;;;4.40;1.27;;;;;;;6.67;100.00;98038.31;5231961;28;20103;-79
2022/04/08 00:27:08;;;;;;;5.63;1.70;;;;;;;6.64;100.00;98046.31;5195089;28;20069;-78
2022/04/08 00:29:38;;;;;;;3.45;1.70;;;;;;;6.79;100.00;98046.19;5230598;28;20020;-78
2022/04/08 00:32:08;;;;;;;3.22;1.35;;;;;;;6.78;100.00;98061.88;5235954;28;20128;-78
2022/04/08 00:34:39;;;;;;;6.78;1.48;;;;;;;6.74;100.00;98068.19;5228373;28;20043;-78
2022/04/08 00:37:09;;;;;;;4.15;1.33;;;;;;;6.76;100.00;98076.72;5235092;28;20029;-79
2022/04/08 00:39:39;;;;;;;4.68;1.20;;;;;;;6.76;100.00;98084.50;5231260;28;20031;-78
2022/04/08 00:42:13;;;;;;;2.25;1.17;;;;;;;6.75;100.00;98088.84;5234438;28;20097;-78
2022/04/08 00:44:44;;;;;;;3.75;1.20;;;;;;;6.67;100.00;98093.66;5220161;28;20411;-78
2022/04/08 00:47:15;;;;;;;3.08;0.90;;;;;;;6.67;100.00;98098.00;5227197;28;20039;-78
2022/04/08 00:49:46;;;;;;;4.95;0.80;;;;;;;6.62;100.00;98100.06;5227912;28;20036;-79
2022/04/08 00:52:16;;;;;;;3.75;1.10;;;;;;;6.66;100.00;98111.91;5226882;28;20028;-79
2022/04/08 00:54:47;;;;;;;3.10;1.00;;;;;;;6.60;100.00;98096.72;5232248;28;20104;-79
2022/04/08 00:57:18;;;;;;;2.83;1.50;;;;;;;6.67;100.00;98114.41;5234479;28;20048;-78
2022/04/08 00:59:49;;;;;;;2.67;1.00;;;;;;;6.65;100.00;98120.63;5230405;28;20032;-78
2022/04/08 01:02:20;;;;;;;5.88;3.20;;;;;;;6.59;100.00;98121.00;5231445;28;20053;-78
2022/04/08 01:04:50;;;;;;;1.85;0.70;;;;;;;6.60;100.00;98122.66;5233921;28;20033;-78
2022/04/08 01:07:22;;;;;;;1.77;0.80;;;;;;;6.62;100.00;98136.38;5232040;28;20589;-78
2022/04/08 01:09:54;;;;;;;3.33;0.77;;;;;;;6.58;100.00;98133.13;5233947;28;20024;-79
2022/04/08 01:12:24;;;;;;;2.90;0.70;;;;;;;6.59;100.00;98136.56;5231890;28;20025;-78
2022/04/08 01:14:59;;;;;;;2.55;0.70;;;;;;;6.55;100.00;98140.22;5221639;28;20685;-79
2022/04/08 01:17:29;;;;;;;4.07;0.90;;;;;;;6.58;100.00;98147.84;5228848;28;20044;-79
2022/04/08 01:19:59;;;;;;;5.55;0.85;;;;;;;6.57;100.00;98159.16;5232318;28;20025;-78
2022/04/08 01:22:31;;;;;;;1.85;0.65;;;;;;;6.51;100.00;98164.69;5232374;28;20119;-79
2022/04/08 01:25:03;;;;;;;2.80;0.50;;;;;;;6.62;100.00;98164.91;5231734;28;20055;-79
2022/04/08 01:27:35;;;;;;;3.63;0.80;;;;;;;6.64;100.00;98169.09;5233097;28;20040;-80
2022/04/08 01:30:08;;;;;;;5.15;1.00;;;;;;;6.63;100.00;98176.97;5223424;28;20137;-79
2022/04/08 01:32:38;;;;;;;2.35;1.13;;;;;;;6.71;100.00;98179.94;5230605;28;20024;-79
2022/04/08 01:35:09;;;;;;;3.10;0.60;;;;;;;6.67;100.00;98196.59;5233953;28;20025;-78
2022/04/08 01:37:39;;;;;;;2.55;1.00;;;;;;;6.63;100.00;98200.31;5230152;28;20425;-78
2022/04/08 01:40:10;;;;;;;4.78;0.88;;;;;;;6.59;100.00;98199.63;5233760;28;20060;-79
2022/04/08 01:42:40;;;;;;;7.18;1.10;;;;;;;6.57;100.00;98211.88;5230634;28;20029;-79
2022/04/08 01:45:11;;;;;;;2.17;0.70;;;;;;;6.54;100.00;98218.97;5226145;28;20386;-79
2022/04/08 01:47:41;;;;;;;4.93;1.10;;;;;;;6.47;100.00;98215.94;5230622;28;20162;-79
2022/04/08 01:50:13;;;;;;;4.00;0.80;;;;;;;6.48;100.00;98220.19;5234486;28;20025;-78
2022/04/08 01:52:43;;;;;;;3.33;0.80;;;;;;;6.49;100.00;98226.19;5229953;28;20032;-78
2022/04/08 01:55:15;;;;;;;5.53;0.93;;;;;;;6.49;100.00;98223.59;5238010;28;20035;-78
2022/04/08 01:57:45;;;;;;;4.00;1.00;;;;;;;6.44;100.00;98225.63;5233957;28;20044;-79
2022/04/08 02:00:15;;;;;;;2.53;1.08;;;;;;;6.46;100.00;98244.53;5225899;28;20510;-79
2022/04/08 02:02:45;;;;;;;6.85;0.80;;;;;;;6.48;100.00;98258.25;5234313;28;20036;-79
2022/04/08 02:05:16;;;;;;;4.63;1.10;;;;;;;6.46;100.00;98260.09;5237143;28;20028;-79
2022/04/08 02:07:46;;;;;;;2.20;0.95;;;;;;;6.38;100.00;98265.72;5233628;28;20035;-79
2022/04/08 02:10:16;;;;;;;2.33;0.98;;;;;;;6.35;100.00;98259.84;5236238;28;20032;-80
2022/04/08 02:12:47;;;;;;;5.88;1.20;;;;;;;6.39;100.00;98266.56;5232917;28;20025;-79
2022/04/08 02:15:25;;;;;;;3.42;0.73;;;;;;;6.28;100.00;98272.31;5225495;28;20029;-80
2022/04/08 02:17:56;;;;;;;2.35;0.55;;;;;;;6.29;100.00;98271.41;5233265;28;20103;-80
2022/04/08 02:20:28;;;;;;;3.58;0.40;;;;;;;6.35;100.00;98283.19;5234998;28;20295;-78
2022/04/08 02:22:59;;;;;;;3.22;0.70;;;;;;;6.33;100.00;98287.63;5234492;28;20382;-78
2022/04/08 02:25:30;;;;;;;3.88;0.60;;;;;;;6.29;100.00;98304.28;5235092;28;20524;-79
2022/04/08 02:28:02;;;;;;;2.17;0.45;;;;;;;6.31;100.00;98310.22;5234072;28;20025;-79
2022/04/08 02:30:33;;;;;;;2.78;0.55;;;;;;;6.26;100.00;98322.63;5206880;28;20043;-78
2022/04/08 02:33:04;;;;;;;1.33;0.60;;;;;;;6.28;100.00;98318.19;5235724;28;20096;-78
2022/04/08 02:35:34;;;;;;;3.22;0.70;;;;;;;6.31;100.00;98323.19;5233663;28;20066;-80
2022/04/08 02:38:05;;;;;;;2.38;0.82;;;;;;;6.25;100.00;98324.34;5218066;28;20746;-79
2022/04/08 02:40:35;;;;;;;2.20;0.95;;;;;;;6.29;100.00;98325.03;5233158;28;20101;-78
2022/04/08 02:43:05;;;;;;;2.95;0.70;;;;;;;6.28;100.00;98329.38;5232699;28;20025;-79
2022/04/08 02:45:36;;;;;;;2.22;0.60;;;;;;;6.28;100.00;98344.09;5225040;28;20024;-80
2022/04/08 02:48:07;;;;;;;4.93;0.60;;;;;;;6.27;100.00;98352.81;5232511;28;20037;-78
2022/04/08 02:50:37;;;;;;;3.28;0.55;;;;;;;6.21;100.00;98350.53;5235898;28;20024;-78
2022/04/08 02:53:07;;;;;;;3.20;0.70;;;;;;;6.30;100.00;98353.50;5233127;28;20036;-78
2022/04/08 02:55:38;;;;;;;2.80;0.80;;;;;;;6.32;100.00;98366.34;5236265;28;20516;-80
2022/04/08 02:58:08;;;;;;;4.13;1.25;;;;;;;6.26;100.00;98377.06;5225096;28;20625;-79
2022/04/08 03:00:40;;;;;;;5.35;1.02;;;;;;;6.31;100.00;98383.69;5228373;28;20029;-79
2022/04/08 03:03:10;;;;;;;5.03;1.45;;;;;;;6.26;100.00;98382.25;5232126;28;20032;-79
2022/04/08 03:05:40;;;;;;;4.97;2.80;;;;;;;6.34;100.00;98390.44;5236349;28;20027;-78
2022/04/08 03:08:11;;;;;;;4.25;1.63;;;;;;;6.31;100.00;98401.84;5232689;28;20063;-80
2022/04/08 03:10:41;;;;;;;5.40;1.40;;;;;;;6.36;100.00;98399.84;5236152;28;20478;-78
2022/04/08 03:13:12;;;;;;;6.40;1.65;;;;;;;6.37;100.00;98413.63;5232223;28;20727;-78
2022/04/08 03:15:42;;;;;;;6.22;1.80;;;;;;;6.37;100.00;98421.41;5206091;28;20028;-80
2022/04/08 03:18:12;;;;;;;4.88;1.30;;;;;;;6.34;100.00;98412.06;5232296;28;20033;-80
2022/04/08 03:20:43;;;;;;;7.47;1.30;;;;;;;6.29;100.00;98424.41;5236290;28;20103;-80
2022/04/08 03:23:14;;;;;;;9.27;1.25;;;;;;;6.32;100.00;98428.59;5228608;28;20040;-80
2022/04/08 03:25:44;;;;;;;5.25;1.00;;;;;;;6.29;100.00;98426.16;5236881;28;20024;-79
2022/04/08 03:28:14;;;;;;;6.47;1.20;;;;;;;6.19;100.00;98432.75;5232105;28;20032;-77
2022/04/08 03:30:46;;;;;;;5.60;1.17;;;;;;;6.17;100.00;98435.44;5235703;28;20027;-79
2022/04/08 03:33:16;;;;;;;5.68;1.55;;;;;;;6.15;100.00;98441.59;5231835;28;20052;-79
2022/04/08 03:35:46;;;;;;;15.13;7.93;;;;;;;6.13;100.00;98443.44;5223958;28;20056;-78
2022/04/08 03:38:16;;;;;;;4.82;1.52;;;;;;;6.15;100.00;98446.78;5232379;28;20040;-79
2022/04/08 03:40:49;;;;;;;6.00;1.42;;;;;;;6.09;100.00;98453.13;5235364;28;20024;-80
2022/04/08 03:43:21;;;;;;;5.38;1.70;;;;;;;6.06;100.00;98455.88;5231758;28;20183;-78
2022/04/08 03:45:51;;;;;;;8.35;1.60;;;;;;;6.12;100.00;98457.34;5223818;28;20024;-80
2022/04/08 03:48:21;;;;;;;2.65;1.33;;;;;;;6.22;100.00;98461.97;5233129;28;20035;-80
2022/04/08 03:50:52;;;;;;;6.30;1.25;;;;;;;6.25;100.00;98473.94;5234895;28;20053;-78
2022/04/08 03:53:23;;;;;;;4.28;1.02;;;;;;;6.16;100.00;98474.41;5233623;28;20029;-79
2022/04/08 03:55:53;;;;;;;7.93;1.15;;;;;;;6.20;100.00;98470.72;5234789;28;20027;-79
2022/04/08 03:58:23;;;;;;;3.88;1.20;;;;;;;6.19;100.00;98469.91;5233214;28;20033;-78
2022/04/08 04:00:54;;;;;;;5.07;1.27;;;;;;;6.24;100.00;98474.84;5234169;28;20128;-78
2022/04/08 04:03:24;;;;;;;6.45;1.50;;;;;;;6.19;100.00;98482.88;5223120;28;20021;-79
2022/04/08 04:05:55;;;;;;;5.18;1.67;;;;;;;6.16;100.00;98488.22;5228909;28;20040;-78
2022/04/08 04:08:25;;;;;;;4.00;1.08;;;;;;;6.14;100.00;98491.78;5234084;28;20040;-79
2022/04/08 04:10:55;;;;;;;5.45;1.30;;;;;;;6.15;100.00;98499.50;5214629;28;20116;-78
2022/04/08 04:13:25;;;;;;;6.25;1.17;;;;;;;6.22;100.00;98498.25;5230560;28;20033;-80
2022/04/08 04:15:56;;;;;;;8.77;1.20;;;;;;;6.14;100.00;98503.00;5222387;28;20033;-79
2022/04/08 04:18:27;;;;;;;7.63;1.65;;;;;;;6.04;100.00;98511.31;5223826;28;20048;-79
2022/04/08 04:20:57;;;;;;;4.50;0.93;;;;;;;6.19;100.00;98510.53;5229150;28;20033;-79
2022/04/08 04:23:27;;;;;;;6.15;1.30;;;;;;;6.20;100.00;98512.22;5233168;28;20039;-78
2022/04/08 04:25:57;;;;;;;8.93;1.20;;;;;;;6.15;100.00;98516.81;5233420;28;20104;-78
2022/04/08 04:28:29;;;;;;;5.32;1.38;;;;;;;6.12;100.00;98529.91;5233016;28;20483;-78
2022/04/08 04:31:01;;;;;;;6.72;1.38;;;;;;;6.00;100.00;98526.19;5233312;28;20059;-79
2022/04/08 04:33:31;;;;;;;5.97;1.70;;;;;;;6.00;100.00;98535.72;5232551;28;20032;-79
2022/04/08 04:36:02;;;;;;;5.05;1.33;;;;;;;5.97;100.00;98541.06;5233788;28;20029;-79
2022/04/08 04:38:32;;;;;;;3.90;1.25;;;;;;;5.86;100.00;98549.38;5233149;28;20486;-78
2022/04/08 04:41:02;;;;;;;4.00;1.50;;;;;;;5.97;100.00;98554.00;5233309;28;20032;-78
2022/04/08 04:43:32;;;;;;;2.03;1.10;;;;;;;5.95;100.00;98553.25;5229122;28;20082;-79
2022/04/08 04:46:05;;;;;;;3.80;1.00;;;;;;;5.94;100.00;98572.31;5223292;28;20032;-79
2022/04/08 04:48:36;;;;;;;2.17;0.98;;;;;;;5.84;100.00;98577.13;5223682;28;20021;-78
2022/04/08 04:51:06;;;;;;;6.80;0.90;;;;;;;5.82;100.00;98571.16;5230121;28;20028;-78
2022/04/08 04:53:36;;;;;;;2.50;0.65;;;;;;;5.80;100.00;98579.91;5231677;28;20037;-78
2022/04/08 04:56:07;;;;;;;2.13;0.80;;;;;;;5.80;100.00;98600.66;5234064;28;20419;-79
2022/04/08 04:58:37;;;;;;;2.33;0.90;;;;;;;5.63;100.00;98593.66;5212945;28;20037;-79
2022/04/08 05:01:07;;;;;;;3.13;1.10;;;;;;;5.84;100.00;98602.16;5231117;28;20037;-79
2022/04/08 05:03:37;;;;;;;4.40;0.85;;;;;;;5.87;100.00;98609.78;5234355;28;20020;-79
2022/04/08 05:06:08;;;;;;;2.95;0.70;;;;;;;5.82;100.00;98625.59;5229968;28;20708;-79
2022/04/08 05:08:38;;;;;;;1.30;0.90;;;;;;;5.59;100.00;98646.50;5234270;28;20044;-78
2022/04/08 05:11:08;;;;;;;0.70;0.40;;;;;;;5.32;100.00;98651.28;5230520;28;20047;-79
2022/04/08 05:13:38;;;;;;;0.10;0.10;;;;;;;4.91;100.00;98667.78;5212632;28;20490;-78
2022/04/08 05:16:09;;;;;;;0.22;0.20;;;;;;;4.46;100.00;98682.69;5222482;28;20090;-78
2022/04/08 05:18:39;;;;;;;0.30;0.20;;;;;;;4.17;100.00;98688.22;5234170;28;20028;-77
2022/04/08 05:21:09;;;;;;;0.75;0.30;;;;;;;4.05;100.00;98702.47;5230653;28;20059;-78
2022/04/08 05:23:40;;;;;;;1.75;0.32;;;;;;;4.13;100.00;98708.16;5233809;28;20064;-79
2022/04/08 05:26:10;;;;;;;3.83;0.60;;;;;;;4.20;100.00;98699.28;5231222;28;20021;-79
2022/04/08 05:28:40;;;;;;;3.30;0.50;;;;;;;4.12;100.00;98710.81;5237744;28;20028;-79
2022/04/08 05:31:11;;;;;;;1.75;0.70;;;;;;;4.15;100.00;98716.69;5234041;28;20031;-78
2022/04/08 05:33:41;;;;;;;1.35;0.60;;;;;;;4.30;100.00;98716.06;5237980;28;20478;-79
2022/04/08 05:36:11;;;;;;;1.60;1.30;;;;;;;4.52;100.00;98722.09;5233856;28;20036;-79
2022/04/08 05:38:41;;;;;;;2.88;1.30;;;;;;;4.54;100.00;98717.69;5237750;28;20050;-79
2022/04/08 05:41:12;;;;;;;1.80;0.90;;;;;;;4.65;100.00;98707.72;5235814;28;20094;-79
2022/04/08 05:43:44;;;;;;;3.70;1.20;;;;;;;4.85;100.00;98712.91;5235906;28;20111;-79
2022/04/08 05:46:15;;;;;;;4.13;1.30;;;;;;;4.94;100.00;98709.09;5225902;28;20558;-79
2022/04/08 05:48:45;;;;;;;4.70;1.73;;;;;;;5.03;100.00;98725.06;5239400;28;20099;-79
2022/04/08 05:51:15;;;;;;;3.35;1.50;;;;;;;5.16;100.00;98723.59;5237037;28;20569;-79
2022/04/08 05:53:46;;;;;;;4.47;1.35;;;;;;;5.35;100.00;98737.44;5239336;28;20028;-79
2022/04/08 05:56:16;;;;;;;2.78;1.33;;;;;;;5.38;100.00;98736.47;5235834;28;20132;-79
2022/04/08 05:58:46;;;;;;;2.97;1.02;;;;;;;5.30;100.00;98748.91;5230294;28;20032;-79
2022/04/08 06:01:16;;;;;;;2.88;1.10;;;;;;;5.32;100.00;98747.91;5235275;28;20055;-79
2022/04/08 06:03:47;;;;;;;3.05;1.98;;;;;;;5.59;100.00;98747.53;5238675;28;20020;-79
2022/04/08 06:06:17;;;;;;;3.00;1.48;;;;;;;5.56;100.00;98757.22;5235093;28;20036;-79
2022/04/08 06:08:47;;;;;;;4.72;1.50;;;;;;;5.70;100.00;98758.28;5219629;28;20032;-79
2022/04/08 06:11:17;;;;;;;7.25;1.40;;;;;;;5.79;100.00;98759.63;5234529;28;20409;-79
2022/04/08 06:13:48;;;;;;;3.05;1.25;;;;;;;5.76;100.00;98759.75;5237862;28;20363;-79
2022/04/08 06:16:23;;;;;;;3.15;1.00;;;;;;;5.78;100.00;98763.97;5234313;28;20082;-79
2022/04/08 06:18:53;;;;;;;6.45;0.75;;;;;;;5.70;100.00;98758.28;5236827;28;20033;-79
2022/04/08 06:21:23;;;;;;;3.08;0.55;;;;;;;5.90;100.00;98762.59;5235028;28;20028;-79
2022/04/08 06:23:54;;;;;;;2.97;0.63;;;;;;;5.91;100.00;98764.28;5237134;28;20089;-79
2022/04/08 06:26:24;;;;;;;1.95;0.57;;;;;;;5.96;100.00;98764.91;5237076;28;20704;-79
2022/04/08 06:28:54;;;;;;;2.92;0.57;;;;;;;6.12;100.00;98771.06;5237236;28;20035;-79
2022/04/08 06:31:29;;;;;;;3.28;0.70;;;;;;;6.13;100.00;98770.13;5235830;28;20033;-79
2022/04/08 06:34:00;;;;;;;2.92;1.10;;;;;;;6.37;100.00;98774.16;5236734;28;20508;-79
2022/04/08 06:36:31;;;;;;;5.75;1.50;;;;;;;6.51;100.00;98772.59;5227892;28;20806;-79
2022/04/08 06:39:01;;;;;;;3.35;1.10;;;;;;;6.67;98.75;98788.28;5230884;28;20100;-79
2022/04/08 06:41:31;;;;;;;4.18;0.73;;;;;;;7.03;98.34;98791.66;5231448;28;20071;-79
2022/04/08 06:44:02;;;;;;;1.95;0.55;;;;;;;7.25;97.79;98790.50;5231127;28;20609;-79
2022/04/08 06:46:32;;;;;;;4.15;0.90;;;;;;;6.95;97.50;98786.00;5232801;28;20429;-79
2022/04/08 06:49:03;;;;;;;4.20;0.90;;;;;;;6.82;97.64;98792.72;5235980;28;20059;-79
2022/04/08 06:51:33;;;;;;;4.32;1.00;;;;;;;6.70;98.42;98793.31;5232049;28;20028;-79
2022/04/08 06:54:03;;;;;;;3.88;0.93;;;;;;;6.80;99.41;98795.38;5233604;28;20028;-79
2022/04/08 06:56:34;;;;;;;4.47;0.82;;;;;;;7.03;99.62;98807.22;5234562;28;20020;-79
2022/04/08 06:59:04;;;;;;;4.82;0.82;;;;;;;7.07;97.84;98813.97;5236088;28;20513;-79
2022/04/08 07:01:34;;;;;;;2.53;0.65;;;;;;;6.98;98.64;98809.22;5234393;28;20559;-79
2022/04/08 07:04:05;;;;;;;5.47;0.85;;;;;;;6.81;99.28;98814.41;5236465;28;20035;-79
2022/04/08 07:06:35;;;;;;;6.05;1.00;;;;;;;6.65;100.00;98816.06;5234213;28;20025;-79
2022/04/08 07:09:05;;;;;;;4.85;1.15;;;;;;;6.65;99.14;98816.06;5235948;28;20025;-79
2022/04/08 07:11:35;;;;;;;6.28;1.15;;;;;;;6.54;100.00;98815.72;5229456;28;20019;-79
2022/04/08 07:14:07;;;;;;;7.20;0.85;;;;;;;6.48;99.29;98809.09;5232604;28;20017;-79
2022/04/08 07:16:37;;;;;;;6.32;1.10;;;;;;;6.41;100.00;98818.06;5232783;28;20024;-79
2022/04/08 07:19:10;;;;;;;8.48;1.63;;;;;;;6.37;99.57;98820.84;5232205;28;20074;-79
2022/04/08 07:21:40;;;;;;;10.50;1.30;;;;;;;6.32;97.86;98828.00;5236149;28;20070;-78
2022/04/08 07:24:10;;;;;;;7.05;1.10;;;;;;;6.21;98.22;98835.44;5226175;28;20061;-79
2022/04/08 07:26:41;;;;;;;5.57;0.95;;;;;;;5.99;98.69;98840.78;5230639;28;20036;-79
2022/04/08 07:29:11;;;;;;;5.72;0.90;;;;;;;6.15;99.43;98821.03;5231049;28;20017;-79
2022/04/08 07:31:41;;;;;;;10.20;1.52;;;;;;;6.60;98.63;98831.00;5229689;28;20033;-79
2022/04/08 07:34:12;;;;;;;6.78;1.00;;;;;;;7.10;95.99;98832.00;5230147;28;20070;-80
2022/04/08 07:36:42;;;;;;;6.28;0.98;;;;;;;7.15;94.21;98832.59;5227269;28;20028;-79
2022/04/08 07:39:13;;;;;;;7.88;0.98;;;;;;;7.07;93.87;98827.78;5228325;28;20037;-79
2022/04/08 07:41:43;;;;;;;5.22;0.98;;;;;;;7.00;92.42;98833.34;5219854;28;20051;-79
2022/04/08 07:44:13;;;;;;;5.93;1.17;;;;;;;7.00;93.83;98823.81;5223261;28;20147;-79
2022/04/08 07:46:43;;;;;;;6.70;1.10;;;;;;;6.90;94.34;98832.13;5221247;28;20040;-79
2022/04/08 07:49:14;;;;;;;6.93;1.55;;;;;;;6.71;95.03;98828.72;5224813;28;20025;-79
2022/04/08 07:51:44;;;;;;;8.10;1.15;;;;;;;6.64;96.20;98840.31;5231278;28;20029;-79
2022/04/08 07:54:14;;;;;;;8.20;1.15;;;;;;;6.66;97.88;98823.78;5227818;28;20125;-79
2022/04/08 07:56:44;;;;;;;9.55;1.23;;;;;;;7.25;97.64;98839.84;5227909;28;20025;-79
2022/04/08 07:59:15;;;;;;;5.67;1.33;;;;;;;8.41;90.55;98827.59;5229747;28;20033;-79
2022/04/08 08:01:46;;;;;;;9.45;1.33;;;;;;;9.73;81.47;98825.06;5224118;28;20291;-80
2022/04/08 08:04:16;;;;;;;9.77;1.33;;;;;;;9.44;82.26;98842.47;5228999;28;20126;-79
2022/04/08 08:06:46;;;;;;;7.97;1.13;;;;;;;10.62;80.18;98833.41;5232014;28;20115;-80
2022/04/08 08:09:17;;;;;;;4.68;1.35;;;;;;;12.82;71.58;98826.03;5228512;28;20644;-80
2022/04/08 08:11:47;;;;;;;5.25;1.20;;;;;;;12.58;70.13;98812.91;5231800;28;20155;-80
2022/04/08 08:14:17;;;;;;;7.13;1.30;;;;;;;13.04;68.56;98816.53;5225272;28;20021;-80
2022/04/08 08:16:48;;;;;;;11.32;1.48;;;;;;;14.55;64.75;98815.22;5225083;28;20040;-80
2022/04/08 08:19:18;;;;;;;3.87;0.90;;;;;;;12.47;67.90;98814.63;5228974;28;20033;-80
2022/04/08 08:21:48;;;;;;;7.63;1.13;;;;;;;10.65;72.75;98828.84;5226439;28;20291;-80
2022/04/08 08:24:19;;;;;;;6.20;1.40;;;;;;;9.95;74.89;98831.53;5206612;28;20291;-80
2022/04/08 08:26:49;;;;;;;6.03;1.42;;;;;;;9.16;79.08;98844.16;5232220;28;20041;-80
2022/04/08 08:29:19;;;;;;;8.27;1.20;;;;;;;8.70;80.27;98842.44;5233875;28;20032;-79
2022/04/08 08:31:49;;;;;;;9.35;1.30;;;;;;;9.37;79.26;98842.91;5231519;28;20032;-79
2022/04/08 08:34:20;;;;;;;6.35;1.20;;;;;;;9.41;80.70;98845.25;5232050;28;20032;-79
2022/04/08 08:36:51;;;;;;;8.77;1.38;;;;;;;11.32;73.01;98832.22;5232801;28;20423;-80
2022/04/08 08:39:21;;;;;;;5.47;1.10;;;;;;;11.80;71.28;98831.53;5231859;28;20028;-80
2022/04/08 08:41:51;;;;;;;6.13;1.10;;;;;;;12.98;67.02;98826.63;5226697;28;20037;-80
2022/04/08 08:44:22;;;;;;;4.35;1.10;;;;;;;14.18;64.07;98824.31;5224459;28;20275;-80
2022/04/08 08:46:53;;;;;;;7.50;1.90;;;;;;;13.09;66.23;98840.63;5225488;28;20036;-80
2022/04/08 08:49:28;;;;;;;7.82;1.30;;;;;;;11.06;69.50;98838.31;5229687;28;20033;-80
2022/04/08 08:51:59;;;;;;;7.68;1.52;;;;;;;12.71;68.38;98834.66;5231265;28;20060;-80
2022/04/08 08:54:31;;;;;;;6.50;1.20;;;;;;;11.92;68.09;98841.19;5232273;28;20525;-79
2022/04/08 08:57:02;;;;;;;7.43;1.13;;;;;;;12.73;66.90;98843.25;5230847;28;20070;-80
2022/04/08 08:59:32;;;;;;;6.05;1.30;;;;;;;11.92;67.94;98846.41;5230937;28;20720;-80
2022/04/08 09:02:03;;;;;;;5.40;1.10;;;;;;;10.60;69.02;98851.81;5234483;28;20125;-80
2022/04/08 09:04:39;;;;;;;8.77;1.17;;;;;;;9.99;71.21;98851.28;5234827;28;20271;-79
2022/04/08 09:07:24;;;;;;;5.53;1.40;;;;;;;9.27;73.19;98844.34;5233868;28;20043;-79
2022/04/08 09:09:56;;;;;;;5.93;1.30;;;;;;;9.27;76.11;98849.56;5225048;28;20071;-79
2022/04/08 09:12:28;;;;;;;7.60;1.40;;;;;;;9.38;74.42;98850.66;5217151;28;20120;-79
2022/04/08 09:15:01;;;;;;;8.10;1.50;;;;;;;9.70;73.33;98852.19;5227088;28;20028;-79
2022/04/08 09:17:31;;;;;;;4.22;1.33;;;;;;;8.98;75.39;98829.56;5229395;28;20033;-79
2022/04/08 09:20:02;;;;;;;6.28;1.33;;;;;;;8.87;75.52;98857.97;5216620;28;20028;-79
2022/04/08 09:22:33;;;;;;;5.78;1.48;;;;;;;8.82;76.42;98854.81;5234253;28;20053;-79
2022/04/08 09:25:11;;;;;;;10.55;1.52;;;;;;;8.55;78.60;98858.09;5235924;28;20036;-79
2022/04/08 09:27:41;;;;;;;7.85;1.20;;;;;;;8.72;78.65;98858.00;5215602;28;20032;-79
2022/04/08 09:30:19;;;;;;;6.20;1.20;;;;;;;8.82;76.99;98854.81;5237197;28;20035;-79
2022/04/08 09:32:50;;;;;;;7.90;1.25;;;;;;;8.55;76.85;98851.09;5233554;28;20044;-79
2022/04/08 09:35:20;;;;;;;5.88;1.20;;;;;;;8.61;76.40;98848.19;5234901;28;20036;-79
2022/04/08 09:37:58;;;;;;;9.63;2.33;;;;;;;9.41;76.59;98849.59;5227208;28;20047;-79
2022/04/08 09:40:40;;;;;;;7.63;1.67;;;;;;;10.13;74.53;98840.03;5224485;28;20782;-79
2022/04/08 09:43:12;;;;;;;6.43;1.08;;;;;;;9.81;73.20;98848.94;5228918;28;20339;-79
2022/04/08 09:45:44;;;;;;;7.10;1.20;;;;;;;9.83;71.59;98847.09;5224820;28;20150;-79
2022/04/08 09:48:14;;;;;;;7.68;1.33;;;;;;;9.05;73.65;98845.69;5231794;28;20040;-79
2022/04/08 09:50:45;;;;;;;5.20;1.20;;;;;;;9.01;74.75;98844.16;5232534;28;20035;-79
2022/04/08 09:53:19;;;;;;;7.90;1.23;;;;;;;8.97;73.08;98850.47;5237112;28;20036;-79
2022/04/08 09:55:50;;;;;;;8.45;1.40;;;;;;;8.76;76.20;98841.28;5230316;28;20132;-79
2022/04/08 09:58:24;;;;;;;5.82;1.40;;;;;;;8.82;75.42;98836.56;5232657;28;20120;-79
2022/04/08 10:00:55;;;;;;;6.85;1.27;;;;;;;8.78;74.03;98835.06;5234873;28;20039;-79
2022/04/08 10:03:25;;;;;;;7.60;1.63;;;;;;;8.61;74.07;98835.16;5232762;28;20418;-79
2022/04/08 10:05:56;;;;;;;4.78;1.00;;;;;;;8.44;74.49;98837.84;5233180;28;20036;-79
2022/04/08 10:08:28;;;;;;;6.72;1.23;;;;;;;8.36;75.08;98834.81;5232288;28;20128;-79
2022/04/08 10:11:06;;;;;;;4.85;1.30;;;;;;;8.54;75.56;98831.19;5222499;28;20029;-79
2022/04/08 10:13:58;;;;;;;7.88;1.23;;;;;;;8.28;75.89;98824.00;5230736;28;20084;-79
2022/04/08 10:16:31;;;;;;;7.43;1.40;;;;;;;8.80;76.69;98820.19;5223131;28;20621;-79
2022/04/08 10:19:06;;;;;;;6.32;1.27;;;;;;;9.16;75.40;98811.09;5215572;28;20044;-79
2022/04/08 10:21:40;;;;;;;6.70;1.60;;;;;;;9.27;74.58;98805.25;5232357;28;20809;-79
2022/04/08 10:24:13;;;;;;;4.20;1.30;;;;;;;9.32;73.62;98801.47;5234485;28;20040;-79
2022/04/08 10:27:17;;;;;;;3.88;1.27;;;;;;;9.30;73.10;98798.09;5226070;28;20371;-79
2022/04/08 10:29:54;;;;;;;6.82;1.80;;;;;;;8.97;74.39;98781.00;5229954;28;20040;-79
2022/04/08 10:32:49;;;;;;;5.13;1.10;;;;;;;8.92;72.22;98790.81;5233940;28;20040;-79
2022/04/08 10:35:20;;;;;;;6.20;1.90;;;;;;;8.84;73.55;98790.44;5208946;28;20044;-79
2022/04/08 10:38:02;;;;;;;4.75;1.00;;;;;;;8.98;73.77;98782.69;5232063;28;20028;-79
2022/04/08 10:40:38;;;;;;;8.77;2.83;;;;;;;9.18;72.94;98779.75;5231858;28;20039;-79
2022/04/08 10:43:09;;;;;;;6.38;1.10;;;;;;;9.07;72.41;98781.31;5228586;28;20037;-79
2022/04/08 10:45:52;;;;;;;8.98;1.50;;;;;;;9.04;71.93;98774.50;5219139;28;20071;-79
2022/04/08 10:48:33;;;;;;;5.28;1.73;;;;;;;8.91;71.74;98770.91;5231392;28;20482;-79
2022/04/08 10:51:13;;;;;;;5.47;1.58;;;;;;;8.91;70.83;98770.91;5232385;28;20071;-79
2022/04/08 10:53:43;;;;;;;9.90;2.60;;;;;;;8.82;72.24;98762.78;5224899;28;20024;-79
2022/04/08 10:56:14;;;;;;;6.43;2.05;;;;;;;8.73;71.48;98765.94;5229006;28;20058;-79
2022/04/08 10:58:49;;;;;;;6.25;1.90;;;;;;;8.61;70.33;98772.69;5233292;28;20025;-79
2022/04/08 11:01:22;;;;;;;4.20;1.15;;;;;;;8.73;71.61;98766.75;5224574;28;20032;-79
2022/04/08 11:03:59;;;;;;;5.13;1.33;;;;;;;8.90;71.00;98766.63;5234162;28;20056;-79
2022/04/08 11:06:32;;;;;;;7.40;2.22;;;;;;;9.30;70.77;98759.00;5232473;28;20061;-78
2022/04/08 11:09:06;;;;;;;6.43;1.92;;;;;;;9.38;69.43;98754.19;5231183;28;20054;-79
2022/04/08 11:11:39;;;;;;;6.43;1.50;;;;;;;9.59;68.83;98752.91;5228902;28;20116;-79
2022/04/08 11:14:10;;;;;;;7.47;1.77;;;;;;;9.74;69.21;98759.78;5226863;28;20675;-78
2022/04/08 11:16:41;;;;;;;5.88;1.38;;;;;;;9.98;68.73;98747.81;5227640;28;20040;-79
2022/04/08 11:19:11;;;;;;;5.68;1.30;;;;;;;10.36;68.27;98748.06;5231337;28;20100;-79
2022/04/08 11:21:42;;;;;;;5.68;1.60;;;;;;;10.72;67.00;98736.06;5235937;28;20040;-79
2022/04/08 11:24:13;;;;;;;4.50;1.80;;;;;;;10.80;65.08;98736.41;5231909;28;20033;-79
2022/04/08 11:26:47;;;;;;;5.57;1.35;;;;;;;10.52;65.78;98733.09;5228000;28;20041;-79
2022/04/08 11:29:23;;;;;;;4.75;1.85;;;;;;;10.53;64.26;98726.94;5235912;28;20089;-79
2022/04/08 11:32:05;;;;;;;;;;;;;;;10.55;64.35;98732.91;5229530;28;20056;-79
2022/04/08 11:34:36;;;;;;;5.05;1.58;;;;;;;10.41;61.52;98731.19;5232296;28;20743;-79
2022/04/08 11:37:06;;;;;;;8.38;1.20;;;;;;;10.08;62.59;98727.25;5226125;28;20119;-79
2022/04/08 11:39:40;;;;;;;4.00;1.20;;;;;;;9.92;63.11;98716.06;5227463;28;20028;-79
2022/04/08 11:42:10;;;;;;;4.93;1.00;;;;;;;9.97;63.47;98727.88;5231146;28;20045;-79
2022/04/08 11:44:40;;;;;;;4.75;1.02;;;;;;;9.90;62.48;98726.63;5227686;28;20033;-79
2022/04/08 11:47:13;;;;;;;4.88;1.27;;;;;;;9.77;62.16;98728.28;5221359;28;20075;-79
2022/04/08 11:49:44;;;;;;;8.38;0.85;;;;;;;9.90;64.28;98725.75;5218740;28;20436;-79
2022/04/08 11:52:14;;;;;;;6.68;1.17;;;;;;;9.83;64.48;98719.25;5212639;28;20073;-79
2022/04/08 11:54:47;;;;;;;7.55;1.77;;;;;;;9.62;64.84;98717.97;5235559;28;20035;-79
2022/04/08 11:57:26;;;;;;;6.80;1.60;;;;;;;9.48;63.81;98721.41;5231395;28;20068;-79